Time;durP1;ratioP1;P1;durP2;ratioP2;P2;SDS_P1;SDS_P2;PMS_P1;PMS_P2;Temp;Humidity;BMP_temperature;BMP_pressure;BME280_temperature;BME280_humidity;BME280_pressure;Samples;Min_cycle;Max_cycle;Signal;HPM_P1;HPM_P2
2022/11/23 00:01:22;;;;;;;124.35;67.37;;;;;;;1.99;81.08;99245.54;2088924;85;32371;-59
2022/11/23 00:04:24;;;;;;;116.70;64.82;;;;;;;1.97;81.13;99250.41;2073744;85;33467;-60
2022/11/23 00:07:26;;;;;;;115.92;63.98;;;;;;;1.95;81.05;99248.27;2075281;84;30044;-59
2022/11/23 00:10:27;;;;;;;109.25;61.90;;;;;;;1.93;81.02;99246.13;2074711;85;27619;-59
2022/11/23 00:13:28;;;;;;;114.57;63.70;;;;;;;1.92;81.02;99247.48;2074957;85;29051;-59
2022/11/23 00:16:30;;;;;;;119.45;65.30;;;;;;;1.89;81.00;99243.16;2074960;85;30850;-59
2022/11/23 00:19:31;;;;;;;124.35;68.50;;;;;;;1.85;81.14;99249.92;2074568;85;34206;-59
2022/11/23 00:22:34;;;;;;;129.18;71.02;;;;;;;1.80;81.21;99245.64;2078926;84;29700;-59
2022/11/23 00:25:35;;;;;;;126.25;68.33;;;;;;;1.78;81.28;99250.56;2089550;85;27655;-64
2022/11/23 00:28:39;;;;;;;125.95;69.50;;;;;;;1.76;81.25;99253.70;2083553;84;29877;-65
2022/11/23 00:31:40;;;;;;;130.32;68.92;;;;;;;1.75;81.23;99259.90;2080483;84;32257;-66
2022/11/23 00:34:41;;;;;;;128.57;68.85;;;;;;;1.73;81.32;99260.39;2095932;84;33449;-59
2022/11/23 00:37:42;;;;;;;149.42;78.40;;;;;;;1.71;81.45;99252.97;2073596;85;29920;-61
2022/11/23 00:40:43;;;;;;;140.52;72.97;;;;;;;1.68;81.41;99253.94;2110079;84;27626;-61
2022/11/23 00:43:45;;;;;;;121.22;68.70;;;;;;;1.67;81.45;99264.09;2071890;85;28662;-60
2022/11/23 00:46:47;;;;;;;120.02;67.75;;;;;;;1.66;81.53;99268.95;2110351;84;31758;-60
2022/11/23 00:49:48;;;;;;;125.00;67.70;;;;;;;1.67;81.63;99267.58;2073392;85;34404;-59
2022/11/23 00:52:50;;;;;;;121.02;65.52;;;;;;;1.68;81.64;99276.37;2110562;84;30512;-59
2022/11/23 00:55:53;;;;;;;126.25;73.47;;;;;;;1.69;81.71;99266.67;2073685;85;27698;-59
2022/11/23 00:58:57;;;;;;;128.05;71.45;;;;;;;1.70;81.72;99269.72;2110588;84;29113;-59
2022/11/23 01:01:58;;;;;;;128.95;73.02;;;;;;;1.69;81.74;99263.59;2073580;85;31078;-59
2022/11/23 01:04:59;;;;;;;131.05;72.35;;;;;;;1.67;81.74;99253.53;2110865;84;34145;-59
2022/11/23 01:08:03;;;;;;;132.65;75.35;;;;;;;1.67;81.80;99254.37;2073795;85;29731;-59
2022/11/23 01:11:09;;;;;;;133.60;75.97;;;;;;;1.67;81.89;99254.37;2110867;84;27718;-59
2022/11/23 01:14:11;;;;;;;137.92;72.30;;;;;;;1.69;81.94;99259.63;2073490;85;28756;-59
2022/11/23 01:17:13;;;;;;;132.52;73.00;;;;;;;1.71;82.00;99266.17;2069757;84;32288;-59
2022/11/23 01:20:15;;;;;;;133.80;75.37;;;;;;;1.74;82.02;99271.37;2068814;86;33315;-59
2022/11/23 01:23:17;;;;;;;138.32;80.22;;;;;;;1.76;82.01;99273.04;2102944;84;30165;-59
2022/11/23 01:26:19;;;;;;;140.40;76.65;;;;;;;1.77;81.93;99271.28;2103105;84;27670;-59
2022/11/23 01:29:22;;;;;;;138.65;76.20;;;;;;;1.78;81.93;99271.22;2103294;84;29088;-59
2022/11/23 01:32:23;;;;;;;139.60;77.70;;;;;;;1.77;81.92;99274.77;2103177;84;31853;-59
2022/11/23 01:35:25;;;;;;;131.22;75.30;;;;;;;1.80;81.93;99275.16;2103073;84;33831;-59
2022/11/23 01:38:27;;;;;;;132.50;74.80;;;;;;;1.81;82.01;99277.73;2103237;84;29511;-59
2022/11/23 01:41:36;;;;;;;128.57;75.25;;;;;;;1.82;81.95;99269.37;2103426;84;27732;-59
2022/11/23 01:44:39;;;;;;;132.95;73.45;;;;;;;1.84;81.95;99274.12;2103815;84;29058;-59
2022/11/23 01:47:41;;;;;;;119.70;68.67;;;;;;;1.85;81.96;99277.17;2103315;84;31097;-60
2022/11/23 01:50:44;;;;;;;132.87;74.10;;;;;;;1.86;81.96;99273.62;2103530;84;34169;-59
2022/11/23 01:53:48;;;;;;;130.63;70.92;;;;;;;1.89;82.01;99276.66;2106919;84;29435;-59
2022/11/23 01:56:54;;;;;;;90.67;53.33;;;;;;;1.90;81.94;99277.91;2067144;85;27640;-59
2022/11/23 01:59:56;;;;;;;117.85;66.82;;;;;;;1.93;81.98;99279.14;2066639;85;28733;-59
2022/11/23 02:02:59;;;;;;;124.25;68.55;;;;;;;1.93;82.01;99281.78;2066905;85;31440;-59
2022/11/23 02:06:04;;;;;;;123.50;67.53;;;;;;;1.94;81.92;99286.16;2051294;86;33751;-59
2022/11/23 02:09:06;;;;;;;124.30;68.17;;;;;;;1.95;81.95;99286.57;2066875;86;29336;-59
2022/11/23 02:12:12;;;;;;;120.37;68.87;;;;;;;1.99;82.01;99283.84;2067108;86;27690;-60
2022/11/23 02:15:14;;;;;;;118.28;66.65;;;;;;;2.01;82.05;99279.34;2103467;84;29579;-59
2022/11/23 02:18:21;;;;;;;117.00;62.15;;;;;;;2.04;82.03;99283.22;2103551;84;32177;-62
2022/11/23 02:21:23;;;;;;;113.45;64.20;;;;;;;2.04;81.92;99277.94;2089014;85;33773;-62
2022/11/23 02:24:37;;;;;;;108.00;60.75;;;;;;;2.05;81.94;99279.23;2074734;85;29907;-59
2022/11/23 02:27:39;;;;;;;120.17;63.50;;;;;;;2.07;81.99;99280.48;2075366;85;27715;-59
2022/11/23 02:30:41;;;;;;;104.83;61.42;;;;;;;2.09;81.99;99287.91;2057327;85;29142;-59
2022/11/23 02:33:43;;;;;;;122.92;64.03;;;;;;;2.06;81.84;99279.64;2076189;84;31438;-59
2022/11/23 02:36:47;;;;;;;119.10;63.02;;;;;;;2.04;81.76;99274.86;2074680;85;33010;-59
2022/11/23 02:39:51;;;;;;;110.80;61.70;;;;;;;2.04;81.80;99284.09;2075384;85;30237;-61
2022/11/23 02:42:52;;;;;;;113.65;60.23;;;;;;;2.03;81.75;99281.05;2075040;85;27631;-59
2022/11/23 02:45:57;;;;;;;104.72;59.13;;;;;;;2.01;81.81;99281.98;2074908;84;30017;-59
2022/11/23 02:48:59;;;;;;;106.53;60.30;;;;;;;2.03;81.90;99282.81;2089136;85;31809;-58
2022/11/23 02:52:01;;;;;;;102.90;58.38;;;;;;;2.04;81.85;99284.09;2088882;85;32948;-65
2022/11/23 02:55:03;;;;;;;112.47;58.60;;;;;;;2.06;81.95;99280.08;2089144;85;30474;-59
2022/11/23 02:58:06;;;;;;;102.62;56.55;;;;;;;2.09;81.88;99283.95;2072944;85;27712;-59
2022/11/23 03:01:07;;;;;;;104.15;56.58;;;;;;;2.11;81.92;99290.05;2060828;85;28712;-58
2022/11/23 03:04:09;;;;;;;100.85;57.03;;;;;;;2.11;81.85;99280.33;2060729;85;31041;-59
2022/11/23 03:07:10;;;;;;;105.78;57.38;;;;;;;2.12;81.82;99282.54;2079569;85;33739;-59
2022/11/23 03:10:12;;;;;;;101.53;56.33;;;;;;;2.15;81.90;99287.73;2069180;86;29318;-59
2022/11/23 03:13:13;;;;;;;99.92;57.62;;;;;;;2.16;81.83;99278.86;2083889;84;27694;-59
2022/11/23 03:16:15;;;;;;;102.10;54.48;;;;;;;2.15;81.73;99277.60;2083913;85;29907;-59
2022/11/23 03:19:16;;;;;;;107.43;58.28;;;;;;;2.11;81.62;99279.02;2074421;85;30842;-65
2022/11/23 03:22:17;;;;;;;107.12;59.35;;;;;;;2.08;81.69;99277.78;2062752;86;34153;-62
2022/11/23 03:25:19;;;;;;;96.05;56.40;;;;;;;2.08;81.73;99277.78;2062509;86;30511;-59
2022/11/23 03:28:20;;;;;;;98.12;55.75;;;;;;;2.07;81.73;99280.02;2062844;86;27693;-59
2022/11/23 03:31:21;;;;;;;98.58;54.93;;;;;;;2.08;81.76;99279.58;2063072;85;29055;-59
2022/11/23 03:34:23;;;;;;;96.28;55.78;;;;;;;2.07;81.77;99281.81;2062753;85;32222;-59
2022/11/23 03:37:24;;;;;;;100.97;56.60;;;;;;;2.07;81.80;99274.73;2062301;86;33827;-60
2022/11/23 03:40:26;;;;;;;97.15;53.75;;;;;;;2.08;81.78;99271.65;2062484;86;29553;-59
2022/11/23 03:43:27;;;;;;;98.40;55.45;;;;;;;2.07;81.73;99270.77;2062627;86;27732;-59
2022/11/23 03:46:28;;;;;;;101.42;56.02;;;;;;;2.07;81.76;99277.84;2062678;86;29820;-59
2022/11/23 03:49:29;;;;;;;91.17;53.25;;;;;;;2.08;81.78;99271.65;2062636;86;30817;-59
2022/11/23 03:52:31;;;;;;;98.45;53.55;;;;;;;2.07;81.80;99273.88;2062460;86;33033;-59
2022/11/23 03:55:33;;;;;;;95.72;54.03;;;;;;;2.09;81.83;99283.48;2062640;86;29766;-59
2022/11/23 03:58:34;;;;;;;95.67;53.35;;;;;;;2.10;81.83;99282.56;2082818;84;27719;-59
2022/11/23 04:01:35;;;;;;;100.50;53.45;;;;;;;2.11;81.78;99273.73;2096154;84;29097;-59
2022/11/23 04:04:37;;;;;;;92.40;52.83;;;;;;;2.13;81.82;99274.55;2096302;84;31446;-61
2022/11/23 04:07:38;;;;;;;90.95;52.30;;;;;;;2.15;81.76;99274.95;2096357;84;33106;-59
2022/11/23 04:10:40;;;;;;;91.67;50.73;;;;;;;2.13;81.77;99269.73;2101727;84;30103;-59
2022/11/23 04:13:41;;;;;;;92.62;53.17;;;;;;;2.15;81.72;99277.60;2101677;84;27627;-59
2022/11/23 04:16:42;;;;;;;92.17;50.45;;;;;;;2.16;81.73;99274.05;2101653;84;28672;-59
2022/11/23 04:19:44;;;;;;;97.30;52.93;;;;;;;2.16;81.74;99272.73;2101005;84;33108;-59
2022/11/23 04:22:45;;;;;;;87.53;50.00;;;;;;;2.16;81.72;99270.94;2101504;84;32708;-59
2022/11/23 04:25:47;;;;;;;130.30;76.42;;;;;;;2.17;81.67;99270.50;2101554;84;30444;-60
2022/11/23 04:28:48;;;;;;;131.52;71.02;;;;;;;2.17;81.69;99267.85;2101457;84;27721;-60
2022/11/23 04:31:50;;;;;;;116.30;65.00;;;;;;;2.19;81.72;99270.84;2101298;84;28796;-59
2022/11/23 04:34:52;;;;;;;94.05;55.60;;;;;;;2.19;81.70;99270.84;2101572;84;32215;-59
2022/11/23 04:37:53;;;;;;;93.22;52.55;;;;;;;2.20;81.60;99279.66;2101123;84;32964;-59
2022/11/23 04:40:54;;;;;;;87.55;51.58;;;;;;;2.19;81.67;99279.23;2101141;84;29308;-59
2022/11/23 04:43:56;;;;;;;106.25;55.65;;;;;;;2.22;81.73;99275.19;2101757;84;27642;-59
2022/11/23 04:46:57;;;;;;;108.10;57.10;;;;;;;2.23;81.72;99269.84;2101443;84;28892;-59
2022/11/23 04:49:58;;;;;;;93.95;51.70;;;;;;;2.22;81.60;99269.91;2102468;84;31845;-59
2022/11/23 04:53:00;;;;;;;90.40;50.17;;;;;;;2.18;81.53;99269.11;2101094;84;33035;-59
2022/11/23 04:56:01;;;;;;;100.80;55.50;;;;;;;2.16;81.51;99270.09;2101426;84;30475;-59
2022/11/23 04:59:03;;;;;;;107.00;59.03;;;;;;;2.13;81.57;99273.23;2093125;84;27715;-58
2022/11/23 05:02:04;;;;;;;103.53;56.98;;;;;;;2.10;81.52;99267.19;2088785;85;29943;-59
2022/11/23 05:05:07;;;;;;;106.43;58.50;;;;;;;2.08;81.60;99266.37;2088917;84;32211;-59
2022/11/23 05:08:09;;;;;;;108.97;63.83;;;;;;;2.09;81.65;99270.27;2088762;85;33782;-59
2022/11/23 05:11:10;;;;;;;103.67;59.63;;;;;;;2.05;81.61;99267.34;2088786;85;29169;-59
2022/11/23 05:14:11;;;;;;;122.98;68.85;;;;;;;2.02;81.61;99270.51;2088668;85;27676;-59
2022/11/23 05:17:13;;;;;;;109.00;61.37;;;;;;;1.96;81.61;99271.56;2088913;85;29143;-59
2022/11/23 05:20:18;;;;;;;111.92;66.42;;;;;;;1.92;81.74;99272.56;2088898;85;32163;-60
2022/11/23 05:23:19;;;;;;;130.15;72.97;;;;;;;1.88;81.76;99278.41;2088780;85;33346;-58
2022/11/23 05:26:21;;;;;;;106.07;59.15;;;;;;;1.86;81.82;99277.59;2088742;85;30454;-59
2022/11/23 05:29:22;;;;;;;105.30;57.73;;;;;;;1.86;81.88;99287.30;2089203;85;27739;-62
2022/11/23 05:32:23;;;;;;;105.72;58.38;;;;;;;1.84;81.97;99288.65;2088085;84;29923;-58
2022/11/23 05:35:25;;;;;;;108.72;61.35;;;;;;;1.85;82.05;99285.57;2088390;85;31068;-65
2022/11/23 05:38:26;;;;;;;107.60;58.52;;;;;;;1.86;82.05;99284.66;2088550;85;33207;-64
2022/11/23 05:41:27;;;;;;;124.78;65.15;;;;;;;1.87;82.13;99279.79;2089229;85;29705;-59
2022/11/23 05:44:29;;;;;;;125.55;72.32;;;;;;;1.88;82.17;99282.38;2088880;85;27748;-58
2022/11/23 05:47:30;;;;;;;109.48;63.28;;;;;;;1.87;82.15;99280.64;2088910;84;28660;-59
2022/11/23 05:50:31;;;;;;;107.92;59.10;;;;;;;1.88;82.18;99281.05;2088899;85;32152;-59
2022/11/23 05:53:33;;;;;;;111.90;62.27;;;;;;;1.88;82.21;99281.52;2089069;85;33560;-59
2022/11/23 05:56:34;;;;;;;114.88;63.50;;;;;;;1.89;82.23;99284.10;2088892;85;30450;-58
2022/11/23 05:59:35;;;;;;;115.08;60.92;;;;;;;1.92;82.36;99287.09;2068639;85;28271;-60
2022/11/23 06:02:37;;;;;;;116.85;62.95;;;;;;;1.94;82.37;99288.80;2060381;85;29130;-59
2022/11/23 06:05:39;;;;;;;118.35;62.78;;;;;;;1.94;82.33;99287.48;2060025;85;33122;-60
2022/11/23 06:08:40;;;;;;;111.90;59.45;;;;;;;1.95;82.36;99284.36;2060487;85;34125;-60
2022/11/23 06:11:43;;;;;;;98.22;55.43;;;;;;;1.96;82.35;99290.06;2062141;86;29337;-59
2022/11/23 06:14:44;;;;;;;102.45;57.08;;;;;;;1.96;82.34;99290.06;2062207;86;27765;-59
2022/11/23 06:17:46;;;;;;;101.60;56.63;;;;;;;1.97;82.33;99299.71;2062438;86;29829;-59
2022/11/23 06:20:47;;;;;;;102.75;56.90;;;;;;;1.95;82.36;99306.81;2062453;86;31036;-60
2022/11/23 06:23:49;;;;;;;96.67;54.73;;;;;;;1.96;82.48;99313.39;2062414;86;32810;-59
2022/11/23 06:26:51;;;;;;;106.17;55.43;;;;;;;2.01;82.53;99321.61;2062806;86;30138;-59
2022/11/23 06:29:52;;;;;;;100.42;56.83;;;;;;;2.05;82.58;99323.25;2062411;86;27712;-59
2022/11/23 06:32:54;;;;;;;100.72;53.30;;;;;;;2.09;82.52;99328.39;2062509;86;29073;-59
2022/11/23 06:35:58;;;;;;;90.20;51.15;;;;;;;2.12;82.49;99326.12;2062745;85;30762;-61
2022/11/23 06:39:00;;;;;;;98.07;52.93;;;;;;;2.10;82.43;99322.20;2062803;86;32964;-62
2022/11/23 06:42:01;;;;;;;99.92;54.45;;;;;;;2.10;82.44;99323.98;2062530;86;30096;-61
2022/11/23 06:45:04;;;;;;;89.50;47.88;;;;;;;2.11;82.45;99334.49;2062750;86;27649;-59
2022/11/23 06:48:06;;;;;;;90.22;48.90;;;;;;;2.14;82.46;99334.88;2062586;86;29505;-59
2022/11/23 06:51:07;;;;;;;86.40;49.93;;;;;;;2.15;82.48;99331.77;2062664;86;31066;-62
2022/11/23 06:54:08;;;;;;;90.45;50.12;;;;;;;2.15;82.47;99340.58;2062614;86;34091;-63
2022/11/23 06:57:10;;;;;;;90.40;50.83;;;;;;;2.15;82.51;99342.33;2118677;84;30470;-60
2022/11/23 07:00:13;;;;;;;86.47;51.02;;;;;;;2.19;82.57;99345.30;2140599;82;27674;-60
2022/11/23 07:03:21;;;;;;;88.17;49.05;;;;;;;2.20;82.44;99354.48;2131468;82;29721;-61
2022/11/23 07:06:23;;;;;;;85.10;50.55;;;;;;;2.24;82.48;99349.96;2110564;83;31003;-59
2022/11/23 07:09:24;;;;;;;88.55;50.85;;;;;;;2.26;82.55;99359.59;2110552;83;32985;-60
2022/11/23 07:12:26;;;;;;;96.12;54.85;;;;;;;2.27;82.41;99352.08;2110595;84;29338;-60
2022/11/23 07:15:27;;;;;;;88.67;49.45;;;;;;;2.27;82.39;99353.40;2110222;84;28271;-60
2022/11/23 07:18:29;;;;;;;101.07;52.43;;;;;;;2.27;82.32;99352.08;2110591;84;29092;-59
2022/11/23 07:21:30;;;;;;;96.50;53.80;;;;;;;2.29;82.43;99353.34;2110263;84;31055;-62
2022/11/23 07:24:31;;;;;;;82.80;46.98;;;;;;;2.33;82.51;99350.14;2110810;83;32963;-61
2022/11/23 07:27:33;;;;;;;90.70;50.70;;;;;;;2.35;82.38;99346.55;2110230;84;29465;-59
2022/11/23 07:30:35;;;;;;;94.47;50.63;;;;;;;2.36;82.31;99360.62;2110429;83;27678;-61
2022/11/23 07:33:37;;;;;;;92.72;51.77;;;;;;;2.40;82.45;99364.91;2107870;83;28670;-64
2022/11/23 07:36:38;;;;;;;91.40;48.52;;;;;;;2.45;82.51;99355.50;2105134;84;31036;-61
2022/11/23 07:39:39;;;;;;;86.82;49.25;;;;;;;2.45;82.24;99362.11;2103277;84;32015;-63
2022/11/23 07:42:40;;;;;;;92.57;51.25;;;;;;;2.46;82.36;99363.84;2105612;84;29146;-59
2022/11/23 07:45:42;;;;;;;93.50;50.90;;;;;;;2.51;82.50;99361.45;2103357;84;28208;-59
2022/11/23 07:48:43;;;;;;;88.65;48.15;;;;;;;2.54;82.26;99367.13;2103308;84;29910;-59
2022/11/23 07:51:44;;;;;;;90.22;50.70;;;;;;;2.54;82.14;99369.30;2102864;84;31009;-60
2022/11/23 07:54:47;;;;;;;92.25;51.02;;;;;;;2.55;82.18;99374.99;2102776;84;30067;-62
2022/11/23 07:57:55;;;;;;;91.32;48.95;;;;;;;2.61;82.37;99381.01;2103312;84;30680;-63
2022/11/23 08:00:56;;;;;;;86.60;48.38;;;;;;;2.64;82.23;99387.05;2103047;84;27703;-60
2022/11/23 08:03:58;;;;;;;89.17;48.98;;;;;;;2.68;82.16;99389.14;2107139;84;30888;-61
2022/11/23 08:07:01;;;;;;;95.92;50.48;;;;;;;2.67;82.02;99394.90;2110373;84;31069;-61
2022/11/23 08:10:03;;;;;;;92.27;50.12;;;;;;;2.70;82.09;99401.42;2108783;84;32991;-72
2022/11/23 08:13:05;;;;;;;89.20;49.10;;;;;;;2.76;82.19;99405.64;2110229;82;29358;-68
2022/11/23 08:16:08;;;;;;;89.10;49.70;;;;;;;2.84;82.13;99405.39;2098574;84;27774;-64
2022/11/23 08:19:09;;;;;;;79.32;44.25;;;;;;;2.94;82.14;99407.28;2107326;83;28666;-75
2022/11/23 08:22:10;;;;;;;82.02;46.30;;;;;;;2.97;81.79;99402.75;2103856;83;31131;-68
2022/11/23 08:25:12;;;;;;;86.75;46.95;;;;;;;3.02;81.80;99403.47;2108785;82;32507;-69
2022/11/23 08:28:13;;;;;;;85.22;46.80;;;;;;;3.07;81.50;99398.45;2070980;84;28815;-73
2022/11/23 08:31:14;;;;;;;78.10;42.08;;;;;;;3.13;81.69;99399.59;2096402;82;27634;-72
2022/11/23 08:34:17;;;;;;;83.92;44.98;;;;;;;3.15;81.37;99388.02;2095226;83;28583;-68
2022/11/23 08:37:18;;;;;;;83.22;44.88;;;;;;;3.21;81.44;99397.56;2110150;83;32222;-73
2022/11/23 08:40:19;;;;;;;86.02;46.10;;;;;;;3.23;81.14;99399.67;2074942;84;33009;-67
2022/11/23 08:43:21;;;;;;;88.62;46.88;;;;;;;3.28;81.30;99400.39;2110987;82;30539;-68
2022/11/23 08:46:22;;;;;;;88.87;48.87;;;;;;;3.36;81.33;99386.89;2072259;85;27737;-72
2022/11/23 08:49:23;;;;;;;86.60;45.98;;;;;;;3.44;81.34;99392.80;2096417;84;28714;-70
2022/11/23 08:52:25;;;;;;;80.00;47.00;;;;;;;3.55;81.29;99383.59;2068051;86;29987;-72
2022/11/23 08:55:28;;;;;;;83.85;45.95;;;;;;;3.67;81.43;99384.47;2102893;84;34348;-71
2022/11/23 08:58:30;;;;;;;79.55;46.73;;;;;;;3.77;80.95;99381.03;2103330;84;29428;-72
2022/11/23 09:01:31;;;;;;;85.05;46.60;;;;;;;3.81;80.82;99378.68;2089592;84;27595;-72
2022/11/23 09:04:32;;;;;;;78.60;43.83;;;;;;;3.87;80.83;99377.14;2096158;84;30039;-71
2022/11/23 09:07:34;;;;;;;76.17;42.90;;;;;;;3.89;80.27;99371.30;2096241;84;32302;-72
2022/11/23 09:10:36;;;;;;;85.92;46.02;;;;;;;3.90;80.25;99363.75;2096349;84;33024;-71
2022/11/23 09:13:38;;;;;;;73.85;41.85;;;;;;;3.99;80.58;99365.19;2096108;84;29377;-70
2022/11/23 09:16:39;;;;;;;88.05;46.20;;;;;;;4.03;80.25;99354.89;2096185;84;27744;-74
2022/11/23 09:19:40;;;;;;;88.20;45.75;;;;;;;4.13;80.55;99355.41;2096790;84;29022;-70
2022/11/23 09:22:42;;;;;;;83.67;46.55;;;;;;;4.19;80.02;99351.65;2096459;84;31464;-72
2022/11/23 09:25:47;;;;;;;84.80;45.73;;;;;;;4.19;80.07;99356.50;2096101;84;33795;-75
2022/11/23 09:28:47;;;;;;;84.22;47.70;;;;;;;4.25;80.10;99354.92;2088621;85;29505;-72
2022/11/23 09:31:48;;;;;;;91.97;47.23;;;;;;;4.31;80.07;99360.44;2088971;85;27693;-72
2022/11/23 09:34:50;;;;;;;87.05;49.00;;;;;;;4.44;80.05;99365.28;2021731;87;29623;-68
2022/11/23 09:37:56;;;;;;;83.97;45.15;;;;;;;4.52;80.04;99362.73;2020831;87;31039;-73
2022/11/23 09:41:38;;;;;;;81.37;46.28;;;;;;;4.54;79.46;99360.00;2016865;87;32986;-66
2022/11/23 09:44:56;;;;;;;87.37;48.65;;;;;;;4.56;79.45;99352.38;2020333;87;30484;-74
2022/11/23 09:48:08;;;;;;;89.70;47.53;;;;;;;4.61;79.03;99350.01;2017041;87;27685;-70
2022/11/23 09:51:15;;;;;;;89.58;48.95;;;;;;;4.59;78.61;99353.19;2023133;87;28691;-68
2022/11/23 09:54:32;;;;;;;90.12;46.58;;;;;;;4.47;78.77;99345.28;2016208;87;32243;-69
2022/11/23 09:57:34;;;;;;;87.15;45.50;;;;;;;4.47;78.90;99334.67;2021006;87;34230;-70
2022/11/23 10:01:02;;;;;;;89.65;49.03;;;;;;;4.43;78.71;99324.63;2089481;84;30103;-69
2022/11/23 10:04:04;;;;;;;81.80;45.78;;;;;;;4.48;79.05;99325.77;2093635;84;27682;-64
2022/11/23 10:07:22;;;;;;;88.22;45.95;;;;;;;4.46;78.66;99317.03;2091884;84;28728;-66
2022/11/23 10:10:43;;;;;;;89.28;48.75;;;;;;;4.49;79.00;99322.19;2094316;84;31031;-66
2022/11/23 10:14:09;;;;;;;97.85;48.40;;;;;;;4.55;79.15;99317.97;2087289;84;32434;-68
2022/11/23 10:17:49;;;;;;;90.00;49.38;;;;;;;4.58;78.74;99319.62;2084943;84;30188;-69
2022/11/23 10:21:35;;;;;;;96.67;50.65;;;;;;;4.59;78.99;99312.95;2090195;84;27663;-69
2022/11/23 10:24:48;;;;;;;93.42;50.00;;;;;;;4.59;78.60;99306.31;2086263;84;28712;-68
2022/11/23 10:27:54;;;;;;;88.40;45.63;;;;;;;4.48;78.34;99320.02;2082544;84;31087;-66
2022/11/23 10:31:17;;;;;;;89.50;46.53;;;;;;;4.41;78.11;99322.50;2079041;84;33754;-69
2022/11/23 10:34:50;;;;;;;84.92;43.68;;;;;;;4.34;78.09;99325.86;2095080;84;29379;-67
2022/11/23 10:38:12;;;;;;;90.15;45.88;;;;;;;4.23;77.88;99330.25;2087824;84;27717;-69
2022/11/23 10:41:15;;;;;;;82.88;42.38;;;;;;;4.12;77.93;99324.52;2085459;84;28720;-66
2022/11/23 10:44:30;;;;;;;82.05;40.55;;;;;;;4.06;77.80;99322.97;2088408;84;31806;-67
2022/11/23 10:47:41;;;;;;;75.28;39.90;;;;;;;3.94;77.70;99317.67;2078313;84;34191;-71
2022/11/23 10:50:44;;;;;;;77.45;40.00;;;;;;;3.89;77.81;99320.95;2085444;84;29388;-69
2022/11/23 10:54:02;;;;;;;71.20;39.42;;;;;;;3.84;77.89;99312.78;2084058;84;27735;-72
2022/11/23 10:57:35;;;;;;;76.33;39.75;;;;;;;3.85;78.17;99314.52;2080734;84;28339;-75
2022/11/23 11:00:37;;;;;;;72.82;38.20;;;;;;;3.94;78.65;99311.05;2077299;84;31843;-66
2022/11/23 11:03:39;;;;;;;72.10;38.23;;;;;;;4.12;78.69;99309.09;2059682;85;33138;-70
2022/11/23 11:06:40;;;;;;;70.28;36.98;;;;;;;4.24;78.66;99315.23;2085694;84;29600;-67
2022/11/23 11:09:41;;;;;;;65.97;35.25;;;;;;;4.37;78.60;99316.46;2071332;85;27515;-68
2022/11/23 11:12:48;;;;;;;61.75;34.48;;;;;;;4.45;77.96;99318.80;2084761;85;29600;-68
2022/11/23 11:16:00;;;;;;;67.37;35.92;;;;;;;4.49;77.82;99316.44;2065728;84;31240;-66
2022/11/23 11:19:33;;;;;;;64.67;35.13;;;;;;;4.52;77.49;99320.74;2100338;83;33347;-74
2022/11/23 11:22:35;;;;;;;68.17;36.93;;;;;;;4.55;77.40;99324.59;2067042;84;29867;-73
2022/11/23 11:25:38;;;;;;;69.20;37.38;;;;;;;4.54;77.45;99321.55;2105993;83;27684;-66
2022/11/23 11:28:43;;;;;;;64.10;35.90;;;;;;;4.58;77.53;99320.50;2062882;84;29343;-69
2022/11/23 11:32:01;;;;;;;74.95;39.42;;;;;;;4.66;77.65;99312.23;2097920;83;32257;-66
2022/11/23 11:35:28;;;;;;;66.97;37.90;;;;;;;4.80;77.88;99315.64;2062417;85;33013;-66
2022/11/23 11:38:34;;;;;;;65.17;34.45;;;;;;;5.02;78.13;99311.61;2033527;87;30329;-67
2022/11/23 11:41:35;;;;;;;;;;;;;;;5.22;77.07;99308.09;2033008;85;27811;-71
2022/11/23 11:44:38;;;;;;;64.90;36.10;;;;;;;5.32;77.56;99306.74;2030013;87;29143;-69
2022/11/23 11:47:51;;;;;;;70.97;39.00;;;;;;;5.51;77.08;99311.23;2047103;85;32279;-67
2022/11/23 11:51:31;;;;;;;68.15;38.98;;;;;;;5.58;76.71;99301.20;2022162;87;32959;-66
2022/11/23 11:54:37;;;;;;;69.97;37.88;;;;;;;5.71;76.56;99294.87;2031835;86;29900;-67
2022/11/23 11:57:49;;;;;;;75.55;42.03;;;;;;;5.81;76.22;99288.66;2024914;85;27795;-67
2022/11/23 12:01:14;;;;;;;76.65;42.62;;;;;;;5.88;76.89;99300.27;2048890;85;28876;-69
2022/11/23 12:04:38;;;;;;;61.50;31.75;;;;;;;6.07;77.10;99296.30;2057136;85;31276;-65
2022/11/23 12:08:08;;;;;;;75.10;42.00;;;;;;;6.18;76.56;99289.63;2044673;85;33157;-71
2022/11/23 12:11:11;;;;;;;75.50;40.73;;;;;;;6.13;75.72;99284.50;1998316;87;29726;-66
2022/11/23 12:14:13;;;;;;;73.40;40.80;;;;;;;6.04;75.62;99288.95;2005219;87;27771;-69
2022/11/23 12:17:58;;;;;;;73.65;42.17;;;;;;;6.01;75.26;99290.41;2008083;87;28690;-68
2022/11/23 12:21:25;;;;;;;80.85;44.38;;;;;;;5.92;75.32;99294.33;2002966;87;31083;-69
2022/11/23 12:24:57;;;;;;;80.60;43.83;;;;;;;5.79;75.51;99296.72;1984891;87;33371;-70
2022/11/23 12:28:55;;;;;;;84.62;45.73;;;;;;;5.74;75.53;99299.56;2004453;87;29440;-67
2022/11/23 12:32:22;;;;;;;80.42;45.17;;;;;;;5.71;75.34;99300.18;1993841;87;27793;-68
2022/11/23 12:35:29;;;;;;;88.12;45.10;;;;;;;5.64;75.63;99298.27;2003746;87;28699;-68
2022/11/23 12:38:51;;;;;;;85.62;46.63;;;;;;;5.61;75.79;99307.26;2002502;87;31233;-67
2022/11/23 12:42:04;;;;;;;80.55;43.70;;;;;;;5.59;75.80;99301.59;2001766;87;34394;-68
2022/11/23 12:45:23;;;;;;;83.60;43.42;;;;;;;5.53;75.74;99292.59;1988664;87;29327;-67
2022/11/23 12:48:51;;;;;;;80.00;42.43;;;;;;;5.56;76.10;99300.40;2061991;84;27691;-67
2022/11/23 12:52:18;;;;;;;85.57;44.10;;;;;;;5.58;75.77;99300.75;2108452;84;29549;-69
2022/11/23 12:55:31;;;;;;;94.55;47.90;;;;;;;5.55;75.64;99298.23;2058147;84;32168;-68
2022/11/23 12:58:33;;;;;;;82.97;42.75;;;;;;;5.50;75.63;99300.22;2103205;84;33145;-70
2022/11/23 13:01:42;;;;;;;86.57;44.42;;;;;;;5.42;75.42;99299.23;2128459;83;29399;-70
2022/11/23 13:04:56;;;;;;;86.05;43.75;;;;;;;5.34;75.44;99298.73;2073677;83;27759;-71
2022/11/23 13:08:45;;;;;;;81.50;43.42;;;;;;;5.24;75.43;99298.27;2091159;84;29145;-70
2022/11/23 13:12:04;;;;;;;86.78;46.00;;;;;;;5.15;75.40;99302.19;2082833;84;32176;-70
2022/11/23 13:15:52;;;;;;;86.00;45.28;;;;;;;5.00;75.53;99305.03;2084821;84;33400;-68
2022/11/23 13:19:08;;;;;;;84.95;44.27;;;;;;;4.98;75.71;99310.86;2058518;83;29700;-73
2022/11/23 13:22:15;;;;;;;91.70;46.13;;;;;;;4.90;75.68;99316.97;2093410;83;27765;-68
2022/11/23 13:25:26;;;;;;;87.15;46.15;;;;;;;4.88;75.94;99316.17;2119813;82;28720;-70
2022/11/23 13:28:29;;;;;;;90.95;46.08;;;;;;;4.88;75.90;99320.63;2089078;82;31051;-67
2022/11/23 13:31:34;;;;;;;85.25;46.58;;;;;;;4.77;75.64;99317.94;2053290;84;33033;-68
2022/11/23 13:34:46;;;;;;;84.70;44.18;;;;;;;4.68;75.77;99320.99;2071274;85;34842;-69
2022/11/23 13:37:59;;;;;;;91.82;44.67;;;;;;;4.64;76.05;99315.41;2086188;84;27612;-76
2022/11/23 13:41:00;;;;;;;90.75;46.73;;;;;;;4.62;76.15;99318.13;2109269;82;30136;-68
2022/11/23 13:44:27;;;;;;;92.33;47.70;;;;;;;4.66;76.41;99322.84;2109247;84;31061;-68
2022/11/23 13:47:28;;;;;;;88.45;47.62;;;;;;;4.70;76.52;99316.48;2109396;84;33062;-68
2022/11/23 13:50:30;;;;;;;94.75;49.18;;;;;;;4.77;76.55;99322.41;2109231;84;29772;-71
2022/11/23 13:53:40;;;;;;;95.72;48.28;;;;;;;4.75;76.51;99329.08;2109084;84;27673;-71
2022/11/23 13:56:42;;;;;;;95.60;50.33;;;;;;;4.79;76.60;99326.70;2126534;83;28664;-71
2022/11/23 13:59:43;;;;;;;95.62;49.85;;;;;;;4.83;76.58;99332.73;2126719;83;31826;-71
2022/11/23 14:02:45;;;;;;;98.27;49.35;;;;;;;4.79;76.46;99330.69;2084409;84;33089;-65
2022/11/23 14:05:56;;;;;;;98.22;52.80;;;;;;;4.71;76.16;99334.14;2090714;84;29421;-67
2022/11/23 14:09:06;;;;;;;104.55;51.25;;;;;;;4.65;76.39;99339.68;2104758;84;27706;-66
2022/11/23 14:12:38;;;;;;;97.57;49.95;;;;;;;4.65;76.57;99342.34;2079163;84;29483;-71
2022/11/23 14:15:43;;;;;;;104.75;54.90;;;;;;;4.63;76.51;99342.41;2089800;84;30926;-66
2022/11/23 14:18:54;;;;;;;;;;;;;;;4.62;76.67;99343.34;2079237;84;33352;-73
2022/11/23 14:22:00;;;;;;;94.07;52.08;;;;;;;4.64;76.73;99336.63;2074188;85;29382;-68